This is the latest recevied weather packets stored in our database for station/object DB0SVX. If no packets are shown the sender has not sent any weather packets the latest 10 day(s).
| Time | Temp. | Humidity | Pressure | Rain* | Wind** | Luminosity | Snow |
|---|---|---|---|---|---|---|---|
| 1777292718 | 25° C | 25% | 1017.9 hPa | 0 mm | - | - | - |
| 1777291818 | 25° C | 24% | 1018 hPa | 0 mm | - | - | - |
| 1777290918 | 26.11° C | 24% | 1018 hPa | 0 mm | - | - | - |
| 1777290018 | 27.22° C | 22% | 1018 hPa | 0 mm | - | - | - |
| 1777289118 | 27.22° C | 22% | 1018.2 hPa | 0 mm | - | - | - |
| 1777288218 | 27.22° C | 23% | 1018.4 hPa | 0 mm | - | - | - |
| 1777287318 | 27.78° C | 23% | 1018.5 hPa | 0 mm | - | - | - |
| 1777286418 | 26.67° C | 23% | 1018.7 hPa | 0 mm | - | - | - |
| 1777285518 | 26.67° C | 24% | 1018.7 hPa | 0 mm | - | - | - |
| 1777284618 | 26.11° C | 26% | 1018.7 hPa | 0 mm | - | - | - |
| 1777283718 | 23.33° C | 28% | 1019 hPa | 0 mm | - | - | - |
| 1777282818 | 24.44° C | 28% | 1019 hPa | 0 mm | - | - | - |
| 1777281918 | 23.33° C | 29% | 1019 hPa | 0 mm | - | - | - |
| 1777281018 | 23.89° C | 29% | 1019 hPa | 0 mm | - | - | - |
| 1777280118 | 22.22° C | 30% | 1019.2 hPa | 0 mm | - | - | - |
| 1777279218 | 21.67° C | 31% | 1019.2 hPa | 0 mm | - | - | - |
| 1777278318 | 21.11° C | 33% | 1019.5 hPa | 0 mm | - | - | - |
| 1777277418 | 20.56° C | 34% | 1019.5 hPa | 0 mm | - | - | - |
| 1777276518 | 15.56° C | 40% | 1019.4 hPa | 0 mm | - | - | - |
| 1777275618 | 11.11° C | 44% | 1019.2 hPa | 0 mm | - | - | - |
| 1777274718 | 10° C | 44% | 1019.2 hPa | 0 mm | - | - | - |
| 1777273818 | 8.89° C | 44% | 1019.2 hPa | 0 mm | - | - | - |
| 1777272918 | 8.33° C | 43% | 1019.4 hPa | 0 mm | - | - | - |
| 1777272018 | 7.22° C | 41% | 1019.4 hPa | 0 mm | - | - | - |
| 1777271118 | 6.11° C | 41% | 1019.2 hPa | 0 mm | - | - | - |
* Rain latest hour (hover to see other rain measurements)
** Current wind speed in m/s (hover to see current wind gust speed)